• Join FlightAware (Why Join?)
  • Login
  • US Flag 
06:49AM EDT


 

Airport Tracker/Info


-or-


 

Live Flight TrackerFlight Track Log ✈ XOJ552 ✈ 19-Oct-2013 ✈ KSBN - KTEB

Flight Track Log - Related Links

Times and Time Zones

All times are in EDT time to prevent confusion due to time zone crossing. See the XOJ552 flight status page for this flight to view local times or setup timezone preferences in your user account.

Time Position Orientation Groundspeed Altitude Reporting Facility
EDT Latitude Longitude Course Direction KTS MPH feet Rate Location/Type
09:50AM 41.7281 -86.3881 45° Northeast 195 224 3,200  Level Cleveland Center
09:51AM 41.7678 -86.3342 45° Northeast 246 283 5,800 3,060 Climbing Chicago Center
09:52AM 41.7756 -86.2439 83° East 246 283 9,500 3,540 Climbing Chicago Center
09:53AM 41.7875 -86.1267 82° East 317 365 13,100 3,480 Climbing Chicago Center
09:54AM 41.8033 -85.9872 81° East 370 426 16,700 3,480 Climbing Chicago Center
09:55AM 41.8194 -85.8361 82° East 402 463 20,300 3,420 Climbing Chicago Center
09:56AM 41.8356 -85.6764 82° East 423 487 23,800 2,940 Climbing Chicago Center
09:57AM 41.9108 -85.5328 55° Northeast 465 535 26,400 2,280 Climbing Chicago Center
09:58AM 41.9922 -85.3792 54° Northeast 492 566 28,500 1,980 Climbing Chicago Center
09:59AM 42.0775 -85.2097 56° Northeast 530 610 30,600 2,220 Climbing Chicago Center
10:00AM 42.1103 -84.9778 79° East 535 616 33,100 2,040 Climbing Chicago Center
10:01AM 42.1144 -84.7836 88° East 527 606 34,800 1,800 Climbing Chicago Center
10:02AM 42.1133 -84.5864 90° East 529 609 36,800 1,680 Climbing Chicago Center
10:03AM 42.1125 -84.3922 90° East 524 603 38,300 1,260 Climbing Chicago Center
10:04AM 42.1092 -84.2106 91° East 524 603 39,400 1,080 Climbing Cleveland Center
10:05AM 42.1069 -84.0131 91° East 530 610 40,500 1,200 Climbing Cleveland Center
10:06AM 42.1031 -83.7758 91° East 534 615 41,900 1,140 Climbing Cleveland Center
10:07AM 42.0997 -83.5839 91° East 526 605 42,900 1,020 Climbing Cleveland Center
10:09AM 42.0953 -83.3761 92° East 521 600 44,100 1,020 Climbing Cleveland Center
10:10AM 42.0931 -83.1833 91° East 510 587 45,000 420 Climbing Cleveland Center
10:11AM 42.0894 -83.0189 92° East 510 587 45,000  Level Cleveland Center
10:12AM 42.0844 -82.7850 92° East 522 601 45,000  Level Cleveland Center
10:13AM 42.0803 -82.5900 92° East 524 603 45,000  Level Cleveland Center
10:14AM 42.0742 -82.3983 92° East 518 596 45,000  Level Cleveland Center
10:15AM 42.0700 -82.2053 92° East 518 596 45,000  Level Cleveland Center
10:16AM 42.0633 -82.0094 93° East 514 592 45,000  Level Cleveland Center
10:17AM 42.0575 -81.8142 92° East 515 593 45,000  Level Cleveland Center
10:18AM 42.0525 -81.6214 92° East 511 588 45,000  Level Cleveland Center
10:19AM 42.0444 -81.4286 93° East 510 587 45,000  Level Cleveland Center
10:20AM 42.0381 -81.2350 92° East 510 587 45,000  Level Cleveland Center
10:21AM 42.0303 -81.0433 93° East 509 586 45,000  Level Cleveland Center
10:22AM 42.0233 -80.8506 93° East 510 587 45,000  Level Cleveland Center
10:23AM 42.0150 -80.6264 93° East 509 586 45,000  Level Cleveland Center
10:24AM 42.0061 -80.4333 93° East 511 588 45,000  Level Cleveland Center
10:25AM 41.9994 -80.2422 93° East 506 582 45,000  Level Cleveland Center
10:26AM 41.9892 -80.0481 94° East 513 590 45,000  Level Cleveland Center
10:27AM 41.9806 -79.8764 94° East 510 587 45,000  Level Cleveland Center
10:28AM 41.9694 -79.6483 94° East 512 589 45,000  Level Cleveland Center
10:29AM 41.9603 -79.4581 94° East 512 589 45,000  Level Cleveland Center
10:30AM 41.9492 -79.2686 94° East 511 588 45,000  Level Cleveland Center
10:31AM 41.9397 -79.0775 94° East 513 590 45,000 -180 Level Cleveland Center
10:32AM 41.9286 -78.8883 94° East 510 587 44,700  Descending Cleveland Center
10:33AM 41.9186 -78.7019 94° East 504 580 45,000 120 Climbing Cleveland Center
10:34AM 41.9072 -78.5144 95° East 504 580 45,000 -60 Level Cleveland Center
10:35AM 41.8925 -78.2850 95° East 512 589 44,900 -1,140 Descending Cleveland Center
10:36AM 41.8811 -78.0928 94° East 516 594 42,700 -2,280 Descending Cleveland Center
10:37AM 41.8678 -77.8975 95° East 524 603 40,200 -2,580 Descending Cleveland Center
10:38AM 41.8272 -77.7094 106° East 524 603 37,400 -2,760 Descending Cleveland Center
10:39AM 41.7844 -77.5417 109° East 536 617 35,100 -1,320 Descending New York Center
10:40AM 41.7328 -77.3503 110° East 541 623 35,000 -60 Descending New York Center
10:41AM 41.6808 -77.1589 110° East 550 633 35,000 -720 Level New York Center
10:42AM 41.6233 -76.9453 110° East 550 633 33,600 -1,980 Descending New York Center
10:43AM 41.5706 -76.7547 110° East 545 627 31,100 -2,340 Descending New York Center
10:44AM 41.5228 -76.5842 110° East 545 627 29,000 -2,220 Descending New York Center
10:45AM 41.4733 -76.4000 110° East 539 620 26,700 -2,340 Descending New York Center
10:46AM 41.4200 -76.2017 110° East 534 615 24,400 -2,220 Descending New York Center
10:47AM 41.3694 -76.0344 112° Southeast 508 585 22,300 -2,100 Descending New York Center
10:48AM 41.3264 -75.8764 110° East 478 550 20,300 -2,040 Descending New York Center
10:49AM 41.2806 -75.7239 112° Southeast 451 519 18,300 -1,680 Descending New York Center
10:50AM 41.2364 -75.5856 113° Southeast 427 491 17,000 -1,080 Descending New York Center
10:51AM 41.1900 -75.4442 114° Southeast 408 470 16,200 -1,980 Descending New York Center
10:52AM 41.1508 -75.3231 113° Southeast 403 464 13,100 -2,820 Descending New York Center
10:53AM 41.1075 -75.2017 115° Southeast 379 436 10,600 -2,520 Descending New York Center
10:54AM 41.0703 -75.0864 113° Southeast 325 374 8,100 -2,220 Descending New York Center
10:55AM 41.0617 -74.9814 96° East 295 339 6,200 -1,080 Descending New York Center
10:56AM 41.0567 -74.8792 94° East 273 314 6,000 -900 Descending New York Center
10:57AM 41.0539 -74.7856 92° East 273 314 4,500 -960 Descending New York Center
10:58AM 41.0508 -74.6892 92° East 268 308 4,100 -480 Descending New York Center
10:59AM 41.0478 -74.5925 92° East 263 303 3,600 -600 Descending New York Center
11:00AM 41.0464 -74.5017 91° East 257 296 3,000 -300 Descending New York Center
11:01AM 41.0389 -74.4078 96° East 257 296 3,100  Climbing New York Center
11:02AM 41.0375 -74.3169 91° East 252 290 3,100 -180 Level New York Center
11:03AM 41.0339 -74.2261 93° East 252 290 2,800 -480 Descending New York Center
11:04AM 41.0333 -74.1333 90° East 225 259 2,100 -360 Descending New York TRACON
11:05AM 40.9833 -74.0833 143° Southeast 200 230 2,100 -60 Level New York TRACON
11:06AM 40.9500 -74.0500 143° Southeast 178 205 2,000 -480 Descending New York TRACON
11:07AM 40.9167 -74.0500 180° South 137 158 1,200 -840 Descending New York TRACON
11:08AM 40.8833 -74.0500 180° South 124 143 500 -720 Descending New York TRACON
11:10AM 40.8500 -74.0500 180° South  Level FlightAware Approximate
11:17AM 40.8501 -74.0608 180° South  Level Estimated